Decoded Metar for ZSPD (SHANGHAI/PUDONG in CHINA) (IATA:N/A) | Meteo·Mobile Aviation Weather
aviador You're here:

ZSPD Decoded Metar

SHANGHAI/PUDONG in CHINA
Report Time2019-10-19 21:30:00
UTC Time2019-10-19 22:10:40
Flight Rules vfr VFR
Wind340° at 6 kt
W.Decomp.*RWY 35: 6.0 kt HW 0.5 kt LCW
RWY 34: 6.0 kt HW 0.5 kt RCW
Visibility8000 m
Phenomena:N/A
Clouds:Few 033 Hf
Expected CloudBase > 400 ft AGL from Temp-Dew spread
CeilingNone
Temp15°C (ISA 0)
Dew Point14°C (94% RH)
AAT14.1°C
QNH1022 hPa
Density Alt-75 ft
Elevation13 ft
Report Wrong Elevation
Raw Report
METAR ZSPD 192130Z 34003MPS 8000 FEW033 15/14 Q1022 NOSIG=

Extra information for ZSPD:More info

Metar Taf Metar & Taf Last 4 Metars F.Rules Stats Wind Profile Meteogram Temp Stats Airport Information Weather charts Add Link Nearby VenuesMetar ALERT Operation Metar Decoded Social comments